createdAt,value
2022-09-28T00:01:14.533Z,12.98
2022-09-28T00:03:45.967Z,12.99
2022-09-28T00:06:18.854Z,13.01
2022-09-28T00:08:50.851Z,13.04
2022-09-28T00:11:23.571Z,13.05
2022-09-28T00:13:57.892Z,13.06
2022-09-28T00:16:31.615Z,13.06
2022-09-28T00:19:03.079Z,13.06
2022-09-28T00:21:35.834Z,13.04
2022-09-28T00:24:16.089Z,13.00
2022-09-28T00:26:52.717Z,12.96
2022-09-28T00:29:26.666Z,12.95
2022-09-28T00:32:00.628Z,12.93
2022-09-28T00:34:34.621Z,12.90
2022-09-28T00:37:08.873Z,12.88
2022-09-28T00:39:41.635Z,12.87
2022-09-28T00:42:18.581Z,12.84
2022-09-28T00:44:53.203Z,12.82
2022-09-28T00:47:43.788Z,12.80
2022-09-28T00:50:20.927Z,12.74
2022-09-28T00:52:55.519Z,12.69
2022-09-28T00:55:32.837Z,12.65
2022-09-28T00:58:06.850Z,12.59
2022-09-28T01:00:40.756Z,12.52
2022-09-28T01:03:13.799Z,12.45
2022-09-28T01:05:46.369Z,12.39
2022-09-28T01:08:21.222Z,12.35
2022-09-28T01:10:52.949Z,12.31
2022-09-28T01:13:25.570Z,12.29
2022-09-28T01:16:08.348Z,12.26
2022-09-28T01:18:48.846Z,12.26
2022-09-28T01:21:22.507Z,12.23
2022-09-28T01:24:23.448Z,12.22
2022-09-28T01:27:15.388Z,12.22
2022-09-28T01:29:53.588Z,12.21
2022-09-28T01:32:37.771Z,12.20
2022-09-28T01:35:15.072Z,12.18
2022-09-28T01:37:53.091Z,12.16
2022-09-28T01:40:27.750Z,12.16
2022-09-28T01:43:03.547Z,12.16
2022-09-28T01:45:43.451Z,12.15
2022-09-28T01:48:18.832Z,12.14
2022-09-28T01:50:53.713Z,12.13
2022-09-28T01:53:30.066Z,12.11
2022-09-28T01:56:09.857Z,12.10
2022-09-28T01:58:44.878Z,12.08
2022-09-28T02:01:19.361Z,12.08
2022-09-28T02:03:54.880Z,12.08
2022-09-28T02:06:32.037Z,12.06
2022-09-28T02:09:10.168Z,12.06
2022-09-28T02:11:51.604Z,12.07
2022-09-28T02:14:24.274Z,12.07
2022-09-28T02:16:57.678Z,12.05
2022-09-28T02:19:33.614Z,12.01
2022-09-28T02:22:13.148Z,12.00
2022-09-28T02:24:51.879Z,11.97
2022-09-28T02:27:35.535Z,11.96
2022-09-28T02:30:08.715Z,11.96
2022-09-28T02:32:43.630Z,11.95
2022-09-28T02:35:18.070Z,11.94
2022-09-28T02:37:50.573Z,11.92
2022-09-28T02:40:25.299Z,11.91
2022-09-28T02:43:03.225Z,11.90
2022-09-28T02:45:49.929Z,11.89
2022-09-28T02:48:43.711Z,11.89
2022-09-28T02:51:28.476Z,11.89
2022-09-28T02:54:29.848Z,11.90
2022-09-28T02:57:14.675Z,11.90
2022-09-28T02:59:55.026Z,11.90
2022-09-28T03:02:33.007Z,11.90
2022-09-28T03:05:20.764Z,11.90
2022-09-28T03:07:59.595Z,11.91
2022-09-28T03:10:38.528Z,11.93
2022-09-28T03:13:10.334Z,11.91
2022-09-28T03:15:46.451Z,11.90
2022-09-28T03:18:19.528Z,11.90
2022-09-28T03:20:50.686Z,11.92
2022-09-28T03:23:25.437Z,11.92
2022-09-28T03:25:55.130Z,11.92
2022-09-28T03:28:26.580Z,11.90
2022-09-28T03:30:57.615Z,11.89
2022-09-28T03:33:28.633Z,11.87
2022-09-28T03:35:59.556Z,11.88
2022-09-28T03:38:30.574Z,11.88
2022-09-28T03:41:02.385Z,11.90
2022-09-28T03:43:37.876Z,11.92
2022-09-28T03:46:09.229Z,11.93
2022-09-28T03:48:42.806Z,11.93
2022-09-28T03:51:15.020Z,11.93
2022-09-28T03:53:45.975Z,11.92
2022-09-28T03:56:18.489Z,11.93
2022-09-28T03:58:50.013Z,11.94
2022-09-28T04:01:20.929Z,11.94
2022-09-28T04:03:56.266Z,11.94
2022-09-28T04:06:28.106Z,11.95
2022-09-28T04:08:59.593Z,11.97
2022-09-28T04:11:47.623Z,11.98
2022-09-28T04:14:21.950Z,11.99
2022-09-28T04:16:55.005Z,12.00
2022-09-28T04:19:32.576Z,12.01
2022-09-28T04:22:29.771Z,12.02
2022-09-28T04:25:00.858Z,12.00
2022-09-28T04:27:53.147Z,11.99
2022-09-28T04:30:24.786Z,11.96
2022-09-28T04:32:56.759Z,11.95
2022-09-28T04:35:28.111Z,11.93
2022-09-28T04:37:59.076Z,11.90
2022-09-28T04:40:31.144Z,11.91
2022-09-28T04:43:02.298Z,11.88
2022-09-28T04:45:35.809Z,11.87
2022-09-28T04:48:12.165Z,11.86
2022-09-28T04:51:03.350Z,11.86
2022-09-28T04:53:35.176Z,11.86
2022-09-28T04:56:09.023Z,11.87
2022-09-28T04:58:42.242Z,11.85
2022-09-28T05:01:17.699Z,11.84
2022-09-28T05:04:04.138Z,11.83
2022-09-28T05:06:44.067Z,11.81
2022-09-28T05:09:16.632Z,11.81
2022-09-28T05:11:50.119Z,11.80
2022-09-28T05:14:23.059Z,11.79
2022-09-28T05:16:55.250Z,11.79
2022-09-28T05:19:26.188Z,11.79
2022-09-28T05:22:00.547Z,11.78
2022-09-28T05:24:31.445Z,11.78
2022-09-28T05:27:03.756Z,11.77
2022-09-28T05:29:34.663Z,11.76
2022-09-28T05:32:23.917Z,11.74
2022-09-28T05:35:07.300Z,11.73
2022-09-28T05:37:45.422Z,11.72
2022-09-28T05:40:16.456Z,11.72
2022-09-28T05:42:47.545Z,11.71
2022-09-28T05:45:18.573Z,11.72
2022-09-28T05:47:51.068Z,11.73
2022-09-28T05:50:25.059Z,11.74
2022-09-28T05:53:03.179Z,11.74
2022-09-28T05:55:34.512Z,11.76
2022-09-28T05:58:07.668Z,11.78
2022-09-28T06:00:39.013Z,11.78
2022-09-28T06:03:12.798Z,11.79
2022-09-28T06:05:43.819Z,11.80
2022-09-28T06:08:14.946Z,11.82
2022-09-28T06:10:49.669Z,11.82
2022-09-28T06:13:20.823Z,11.81
2022-09-28T06:15:51.824Z,11.80
2022-09-28T06:18:23.510Z,11.80
2022-09-28T06:21:28.028Z,11.83
2022-09-28T06:24:01.485Z,11.86
2022-09-28T06:26:32.683Z,11.92
2022-09-28T06:29:03.673Z,11.97
2022-09-28T06:31:34.678Z,12.03
2022-09-28T06:34:05.642Z,12.08
2022-09-28T06:36:36.555Z,12.13
2022-09-28T06:39:08.101Z,12.17
2022-09-28T06:41:40.129Z,12.21
2022-09-28T06:44:18.346Z,12.26
2022-09-28T06:47:08.349Z,12.35
2022-09-28T06:49:56.901Z,12.43
2022-09-28T06:52:55.546Z,12.47
2022-09-28T06:55:49.144Z,12.52
2022-09-28T06:58:22.586Z,12.59
2022-09-28T07:00:56.200Z,12.69
2022-09-28T07:03:27.527Z,12.78
2022-09-28T07:06:01.553Z,12.84
2022-09-28T07:09:01.621Z,12.89
2022-09-28T07:12:04.925Z,12.95
2022-09-28T07:14:48.321Z,12.96
2022-09-28T07:17:20.133Z,12.95
2022-09-28T07:19:53.169Z,12.93
2022-09-28T07:22:39.430Z,12.94
2022-09-28T07:25:14.407Z,12.96
2022-09-28T07:28:05.180Z,13.03
2022-09-28T07:30:59.440Z,13.11
2022-09-28T07:33:56.554Z,13.23
2022-09-28T07:36:35.463Z,13.36
2022-09-28T07:39:07.405Z,13.49
2022-09-28T07:41:39.870Z,13.58
2022-09-28T07:44:13.938Z,13.65
2022-09-28T07:46:45.398Z,13.68
2022-09-28T07:49:24.977Z,13.70
2022-09-28T07:52:18.823Z,13.68
2022-09-28T07:55:10.453Z,13.70
2022-09-28T07:58:01.896Z,13.79
2022-09-28T08:00:48.562Z,13.99
2022-09-28T08:03:22.451Z,14.16
2022-09-28T08:05:54.287Z,14.61
2022-09-28T08:08:25.285Z,14.94
2022-09-28T08:10:56.896Z,15.10
2022-09-28T08:13:46.802Z,15.37
2022-09-28T08:19:18.560Z,15.75
2022-09-28T08:21:51.102Z,15.78
2022-09-28T08:24:24.767Z,15.75
2022-09-28T08:26:57.313Z,15.70
2022-09-28T08:29:31.981Z,15.69
2022-09-28T08:32:21.658Z,15.72
2022-09-28T08:35:22.386Z,15.77
2022-09-28T08:38:13.266Z,16.11
2022-09-28T08:41:16.826Z,16.57
2022-09-28T08:44:33.472Z,17.07
2022-09-28T08:47:44.217Z,17.63
2022-09-28T08:50:51.260Z,18.31
2022-09-28T08:53:41.933Z,18.68
2022-09-28T08:56:29.213Z,18.77
2022-09-28T08:59:04.649Z,18.73
2022-09-28T09:01:41.886Z,18.70
2022-09-28T09:04:21.344Z,18.64
2022-09-28T09:07:26.858Z,18.64
2022-09-28T09:10:21.040Z,18.66
2022-09-28T09:13:04.361Z,18.68
2022-09-28T09:15:51.781Z,18.70
2022-09-28T09:18:45.637Z,18.76
2022-09-28T09:21:48.864Z,18.78
2022-09-28T09:24:28.405Z,18.72
2022-09-28T09:27:17.803Z,18.67
2022-09-28T09:30:05.061Z,18.70
2022-09-28T09:32:57.849Z,18.89
2022-09-28T09:36:02.518Z,19.11
2022-09-28T09:39:04.338Z,19.37
2022-09-28T09:42:08.545Z,19.57
2022-09-28T09:45:26.146Z,19.59
2022-09-28T09:48:22.319Z,19.61
2022-09-28T09:50:58.561Z,19.62
2022-09-28T09:53:38.511Z,19.61
2022-09-28T09:56:17.644Z,19.40
2022-09-28T09:59:13.010Z,19.11
2022-09-28T10:02:21.740Z,18.80
2022-09-28T10:05:02.712Z,18.59
2022-09-28T10:07:44.588Z,18.58
2022-09-28T10:10:22.982Z,18.59
2022-09-28T10:12:57.690Z,18.52
2022-09-28T10:15:30.667Z,18.59
2022-09-28T10:18:21.646Z,18.77
2022-09-28T10:21:16.203Z,18.89
2022-09-28T10:24:02.882Z,18.88
2022-09-28T10:26:38.773Z,18.75
2022-09-28T10:29:17.975Z,18.54
2022-09-28T10:31:50.764Z,18.33
2022-09-28T10:34:36.868Z,18.16
2022-09-28T10:37:13.106Z,18.05
2022-09-28T10:40:03.602Z,17.93
2022-09-28T10:42:38.279Z,17.81
2022-09-28T10:45:23.569Z,17.70
2022-09-28T10:48:02.014Z,17.60
2022-09-28T10:50:34.484Z,17.47
2022-09-28T10:53:21.601Z,17.35
2022-09-28T10:56:23.188Z,17.20
2022-09-28T10:59:26.223Z,17.04
2022-09-28T11:02:00.323Z,16.87
2022-09-28T11:04:41.665Z,16.74
2022-09-28T11:07:20.799Z,16.62
2022-09-28T11:09:55.011Z,16.49
2022-09-28T11:12:28.396Z,16.36
2022-09-28T11:15:03.021Z,16.26
2022-09-28T11:17:39.836Z,16.18
2022-09-28T11:20:31.128Z,16.16
2022-09-28T11:23:20.686Z,16.20
2022-09-28T11:26:07.111Z,16.17
2022-09-28T11:28:42.187Z,16.15
2022-09-28T11:31:31.301Z,16.12
2022-09-28T11:34:31.107Z,16.10
2022-09-28T11:37:36.649Z,16.07
2022-09-28T11:40:25.130Z,16.03
2022-09-28T11:43:12.325Z,15.99
2022-09-28T11:45:56.294Z,15.95
2022-09-28T11:48:40.126Z,15.97
2022-09-28T11:51:18.079Z,16.00
2022-09-28T11:53:56.308Z,16.01
2022-09-28T11:56:37.228Z,16.02
2022-09-28T11:59:15.470Z,16.04
2022-09-28T12:01:54.564Z,16.07
2022-09-28T12:04:53.587Z,16.07
2022-09-28T12:07:54.910Z,16.06
2022-09-28T12:11:21.156Z,16.06
2022-09-28T12:14:22.672Z,16.09
2022-09-28T12:17:06.869Z,16.11
2022-09-28T12:19:40.989Z,16.12
2022-09-28T12:22:33.359Z,16.15
2022-09-28T12:25:07.897Z,16.12
2022-09-28T12:27:49.145Z,16.08
2022-09-28T12:30:23.027Z,16.00
2022-09-28T12:33:00.382Z,15.96
2022-09-28T12:35:46.115Z,15.90
2022-09-28T12:38:35.937Z,15.82
2022-09-28T12:41:17.537Z,15.74
2022-09-28T12:44:10.944Z,15.66
2022-09-28T12:46:59.774Z,15.60
2022-09-28T12:50:37.138Z,15.61
2022-09-28T12:56:48.225Z,15.55
2022-09-28T13:00:04.813Z,15.52
2022-09-28T13:02:52.138Z,15.46
2022-09-28T13:05:43.088Z,15.40
2022-09-28T13:08:20.755Z,15.32
2022-09-28T13:11:07.916Z,15.27
2022-09-28T13:13:53.107Z,15.21
2022-09-28T13:16:31.611Z,15.14
2022-09-28T13:19:10.258Z,15.07
2022-09-28T13:21:47.572Z,15.00
2022-09-28T13:24:32.547Z,14.91
2022-09-28T13:27:15.566Z,14.86
2022-09-28T13:30:06.645Z,14.82
2022-09-28T13:32:39.393Z,14.77
2022-09-28T13:35:19.466Z,14.73
2022-09-28T13:38:10.809Z,14.70
2022-09-28T13:41:17.031Z,14.70
2022-09-28T13:44:13.174Z,14.73
2022-09-28T13:46:51.986Z,14.82
2022-09-28T13:49:32.676Z,14.91
2022-09-28T13:52:11.353Z,15.01
2022-09-28T13:54:57.859Z,15.11
2022-09-28T13:57:35.864Z,15.16
2022-09-28T14:00:18.967Z,15.18
2022-09-28T14:02:58.917Z,15.17
2022-09-28T14:05:47.005Z,15.18
2022-09-28T14:08:38.627Z,15.20
2022-09-28T14:11:57.966Z,15.22
2022-09-28T14:14:45.883Z,15.22
2022-09-28T14:17:51.342Z,15.22
2022-09-28T14:20:27.400Z,15.21
2022-09-28T14:23:28.491Z,15.18
2022-09-28T14:26:29.033Z,15.17
2022-09-28T14:29:13.061Z,15.13
2022-09-28T14:31:45.677Z,15.08
2022-09-28T14:34:38.472Z,15.04
2022-09-28T14:37:40.060Z,14.98
2022-09-28T14:40:40.227Z,14.93
2022-09-28T14:43:28.700Z,14.90
2022-09-28T14:46:31.307Z,14.86
2022-09-28T14:49:04.103Z,14.80
2022-09-28T14:52:04.833Z,14.76
2022-09-28T14:54:57.023Z,14.71
2022-09-28T14:57:32.627Z,14.66
2022-09-28T15:00:17.496Z,14.63
2022-09-28T15:02:52.802Z,14.61
2022-09-28T15:05:33.531Z,14.60
2022-09-28T15:08:07.706Z,14.59
2022-09-28T15:10:42.162Z,14.57
2022-09-28T15:13:22.258Z,14.56
2022-09-28T15:15:56.867Z,14.53
2022-09-28T15:18:52.061Z,14.51
2022-09-28T15:21:24.452Z,14.49
2022-09-28T15:23:55.403Z,14.48
2022-09-28T15:26:31.179Z,14.47
2022-09-28T15:29:04.165Z,14.43
2022-09-28T15:31:38.402Z,14.42
2022-09-28T15:34:47.528Z,14.39
2022-09-28T15:37:22.774Z,14.35
2022-09-28T15:39:56.121Z,14.31
2022-09-28T15:42:27.960Z,14.25
2022-09-28T15:45:28.799Z,14.21
2022-09-28T15:48:21.267Z,14.16
2022-09-28T15:51:10.495Z,14.13
2022-09-28T15:53:50.155Z,14.08
2022-09-28T15:56:21.393Z,14.04
2022-09-28T15:59:12.164Z,14.00
2022-09-28T16:01:44.131Z,13.93
2022-09-28T16:04:39.766Z,13.90
2022-09-28T16:07:39.684Z,13.85
2022-09-28T16:10:37.759Z,13.81
2022-09-28T16:13:20.242Z,13.78
2022-09-28T16:16:00.030Z,13.75
2022-09-28T16:18:32.524Z,13.73
2022-09-28T16:21:31.717Z,13.72
2022-09-28T16:24:03.406Z,13.69
2022-09-28T16:26:39.100Z,13.68
2022-09-28T16:29:25.844Z,13.66
2022-09-28T16:31:56.881Z,13.65
2022-09-28T16:34:30.878Z,13.63
2022-09-28T16:37:38.272Z,13.60
2022-09-28T16:40:11.539Z,13.56
2022-09-28T16:42:48.923Z,13.55
2022-09-28T16:45:32.472Z,13.53
2022-09-28T16:48:06.072Z,13.51
2022-09-28T16:51:15.907Z,13.49
2022-09-28T16:54:05.551Z,13.48
2022-09-28T16:56:39.184Z,13.46
2022-09-28T16:59:13.966Z,13.44
2022-09-28T17:01:49.413Z,13.43
2022-09-28T17:04:20.538Z,13.42
2022-09-28T17:07:18.059Z,13.43
2022-09-28T17:10:06.110Z,13.45
2022-09-28T17:12:42.553Z,13.46
2022-09-28T17:15:19.756Z,13.48
2022-09-28T17:17:51.305Z,13.50
2022-09-28T17:20:26.386Z,13.51
2022-09-28T17:22:58.165Z,13.51
2022-09-28T17:25:30.220Z,13.51
2022-09-28T17:28:01.928Z,13.50
2022-09-28T17:30:33.243Z,13.48
2022-09-28T17:33:05.708Z,13.47
2022-09-28T17:35:39.729Z,13.45
2022-09-28T17:38:12.794Z,13.43
2022-09-28T17:40:45.585Z,13.41
2022-09-28T17:43:16.692Z,13.39
2022-09-28T17:45:55.416Z,13.36
2022-09-28T17:48:51.178Z,13.33
2022-09-28T17:51:26.414Z,13.32
2022-09-28T17:53:57.050Z,13.28
2022-09-28T17:56:32.087Z,13.25
2022-09-28T17:59:12.342Z,13.20
2022-09-28T18:02:03.316Z,13.14
2022-09-28T18:04:51.159Z,13.10
2022-09-28T18:07:22.986Z,13.07
2022-09-28T18:09:58.428Z,13.04
2022-09-28T18:12:32.190Z,13.00
2022-09-28T18:15:03.443Z,12.97
2022-09-28T18:17:52.747Z,12.93
2022-09-28T18:20:43.651Z,12.88
2022-09-28T18:23:14.774Z,12.85
2022-09-28T18:25:46.777Z,12.81
2022-09-28T18:28:48.448Z,12.77
2022-09-28T18:32:07.269Z,12.73
2022-09-28T18:34:40.676Z,12.68
2022-09-28T18:37:14.434Z,12.64
2022-09-28T18:40:33.069Z,12.60
2022-09-28T18:43:05.494Z,12.54
2022-09-28T18:45:38.264Z,12.50
2022-09-28T18:48:44.378Z,12.47
2022-09-28T18:51:37.396Z,12.41
2022-09-28T18:54:08.467Z,12.36
2022-09-28T18:56:42.124Z,12.28
2022-09-28T18:59:14.371Z,12.21
2022-09-28T19:01:51.645Z,12.15
2022-09-28T19:04:22.924Z,12.09
2022-09-28T19:06:54.532Z,12.03
2022-09-28T19:09:26.619Z,11.94
2022-09-28T19:11:57.840Z,11.87
2022-09-28T19:14:29.035Z,11.76
2022-09-28T19:17:00.342Z,11.69
2022-09-28T19:19:31.841Z,11.63
2022-09-28T19:22:02.971Z,11.57
2022-09-28T19:24:34.543Z,11.50
2022-09-28T19:27:06.009Z,11.46
2022-09-28T19:29:37.961Z,11.44
2022-09-28T19:32:09.039Z,11.40
2022-09-28T19:34:40.182Z,11.33
2022-09-28T19:37:11.703Z,11.28
2022-09-28T19:39:43.157Z,11.23
2022-09-28T19:42:14.214Z,11.20
2022-09-28T19:44:46.504Z,11.18
2022-09-28T19:47:21.687Z,11.16
2022-09-28T19:49:52.963Z,11.15
2022-09-28T19:52:24.332Z,11.14
2022-09-28T19:54:56.918Z,11.13
2022-09-28T19:57:30.572Z,11.12
2022-09-28T20:00:03.529Z,11.10
2022-09-28T20:02:38.003Z,11.09
2022-09-28T20:05:10.107Z,11.09
2022-09-28T20:07:41.334Z,11.09
2022-09-28T20:10:13.151Z,11.08
2022-09-28T20:12:44.422Z,11.06
2022-09-28T20:15:16.673Z,11.02
2022-09-28T20:17:47.823Z,10.98
2022-09-28T20:20:19.293Z,10.93
2022-09-28T20:22:50.887Z,10.90
2022-09-28T20:25:21.984Z,10.86
2022-09-28T20:27:53.238Z,10.85
2022-09-28T20:30:24.451Z,10.83
2022-09-28T20:32:55.487Z,10.80
2022-09-28T20:35:32.931Z,10.79
2022-09-28T20:38:09.190Z,10.78
2022-09-28T20:40:41.236Z,10.74
2022-09-28T20:43:13.456Z,10.71
2022-09-28T20:45:45.388Z,10.68
2022-09-28T20:48:17.045Z,10.63
2022-09-28T20:50:48.353Z,10.56
2022-09-28T20:53:19.561Z,10.51
2022-09-28T20:55:58.033Z,10.47
2022-09-28T20:58:29.800Z,10.44
2022-09-28T21:01:09.299Z,10.40
2022-09-28T21:03:41.233Z,10.36
2022-09-28T21:06:13.498Z,10.33
2022-09-28T21:08:45.984Z,10.31
2022-09-28T21:11:18.561Z,10.27
2022-09-28T21:13:53.083Z,10.24
2022-09-28T21:16:24.470Z,10.24
2022-09-28T21:18:55.515Z,10.24
2022-09-28T21:21:27.259Z,10.26
2022-09-28T21:23:59.219Z,10.27
2022-09-28T21:26:31.943Z,10.30
2022-09-28T21:29:05.135Z,10.32
2022-09-28T21:31:41.710Z,10.34
2022-09-28T21:34:15.287Z,10.37
2022-09-28T21:36:46.993Z,10.40
2022-09-28T21:39:18.801Z,10.41
2022-09-28T21:41:49.819Z,10.44
2022-09-28T21:44:21.123Z,10.47
2022-09-28T21:46:52.446Z,10.50
2022-09-28T21:49:23.579Z,10.51
2022-09-28T21:51:54.829Z,10.51
2022-09-28T21:54:25.922Z,10.51
2022-09-28T21:56:56.938Z,10.52
2022-09-28T21:59:28.195Z,10.50
2022-09-28T22:01:59.271Z,10.48
2022-09-28T22:04:30.536Z,10.41
2022-09-28T22:07:01.633Z,10.37
2022-09-28T22:09:32.802Z,10.33
2022-09-28T22:12:12.631Z,10.28
2022-09-28T22:14:43.727Z,10.25
2022-09-28T22:17:14.909Z,10.21
2022-09-28T22:19:45.916Z,10.17
2022-09-28T22:22:17.148Z,10.12
2022-09-28T22:24:48.252Z,10.10
2022-09-28T22:27:19.604Z,10.04
2022-09-28T22:29:51.226Z,9.99
2022-09-28T22:32:23.932Z,9.96
2022-09-28T22:34:55.780Z,9.94
2022-09-28T22:37:28.172Z,9.90
2022-09-28T22:40:00.911Z,9.88
2022-09-28T22:42:32.754Z,9.86
2022-09-28T22:45:04.080Z,9.84
2022-09-28T22:47:35.255Z,9.82
2022-09-28T22:50:08.311Z,9.80
2022-09-28T22:52:39.724Z,9.79
2022-09-28T22:55:12.918Z,9.78
2022-09-28T22:57:47.674Z,9.75
2022-09-28T23:00:19.395Z,9.73
2022-09-28T23:02:50.516Z,9.69
2022-09-28T23:05:21.482Z,9.67
2022-09-28T23:07:52.544Z,9.64
2022-09-28T23:10:24.430Z,9.60
2022-09-28T23:12:57.653Z,9.57
2022-09-28T23:15:29.895Z,9.56
2022-09-28T23:18:00.830Z,9.57
2022-09-28T23:20:32.133Z,9.58
2022-09-28T23:23:03.640Z,9.58
2022-09-28T23:25:34.642Z,9.61
2022-09-28T23:28:05.762Z,9.63
2022-09-28T23:30:36.884Z,9.63
2022-09-28T23:33:08.519Z,9.62
2022-09-28T23:35:39.608Z,9.61
2022-09-28T23:38:13.820Z,9.59
2022-09-28T23:40:45.788Z,9.56
2022-09-28T23:43:16.988Z,9.52
2022-09-28T23:45:47.976Z,9.50
2022-09-28T23:48:19.269Z,9.48
2022-09-28T23:50:50.800Z,9.46
2022-09-28T23:56:43.368Z,9.40
2022-09-28T23:59:16.706Z,9.42
